• Join FlightAware (Why Join?)
  • Login
  • US Flag 
09:39PM EST


 

Airport Tracker/Info


-or-


 

Live Flight TrackerFlight Track Log ✈ SWA279 ✈ 25-Apr-2013 ✈ KHOU - KLAX

Flight Track Log - Related Links

Times and Time Zones

All times are in EDT time to prevent confusion due to time zone crossing. See the SWA279 flight status page for this flight to view local times or setup timezone preferences in your user account.

Time Position Orientation Groundspeed Altitude Reporting Facility
EDT Latitude Longitude Course Direction KTS MPH feet Rate Location/Type
03:28PM 29.6356 -95.2675 15° North 144 166 700  Level Houston Center
03:29PM 29.6719 -95.2564 15° North 237 273 3,000 2,640 Climbing Houston Center
03:30PM 29.7067 -95.3575 292° West 261 300 7,200 3,600 Climbing Houston Center
03:31PM 29.7256 -95.4308 287° West 283 326 10,500 2,640 Climbing Houston Center
03:32PM 29.7525 -95.5303 287° West 329 379 12,400 2,400 Climbing Houston Center
03:33PM 29.7833 -95.6417 288° West 364 419 15,500 2,700 Climbing Houston Center
03:35PM 29.8144 -95.7581 287° West 379 436 18,000 2,820 Climbing Houston Center
03:36PM 29.8544 -95.9064 287° West 405 466 21,400 2,400 Climbing Houston Center
03:37PM 29.8847 -96.0186 287° West 404 465 23,000 1,440 Climbing Houston Center
03:38PM 29.9189 -96.1431 288° West 408 470 24,500 1,800 Climbing Houston Center
03:39PM 29.9419 -96.2994 280° West 419 482 26,800 1,980 Climbing Houston Center
03:40PM 29.9486 -96.4369 273° West 432 497 28,600 2,040 Climbing Houston Center
03:41PM 29.9572 -96.5717 274° West 426 490 31,100 2,220 Climbing Houston Center
03:42PM 29.9850 -96.7000 284° West 416 479 33,300 1,980 Climbing Houston Center
03:43PM 30.0103 -96.8233 283° West 402 463 35,300 1,260 Climbing Houston Center
03:44PM 30.0406 -96.9686 284° West 391 450 36,000 180 Climbing Houston Center
03:46PM 30.0900 -97.2072 284° West 384 442 36,000  Level Houston Center
03:47PM 30.1147 -97.3292 283° West 382 440 36,000  Level Houston Center
03:48PM 30.1389 -97.4500 283° West 381 438 36,000  Level Houston Center
03:49PM 30.1642 -97.5708 284° West 382 440 36,000  Level Houston Center
03:50PM 30.1922 -97.7119 283° West 382 440 36,000  Level Houston Center
03:51PM 30.2169 -97.8325 283° West 382 440 36,000  Level Houston Center
03:52PM 30.2403 -97.9533 283° West 379 436 36,000  Level Houston Center
03:53PM 30.2653 -98.0811 283° West 379 436 36,000  Level Houston Center
03:54PM 30.2889 -98.2000 283° West 380 437 36,000  Level Houston Center
03:55PM 30.3114 -98.3147 283° West 381 438 36,000  Level Houston Center
03:56PM 30.3353 -98.4361 283° West 382 440 36,000  Level Houston Center
03:57PM 30.3586 -98.5558 283° West 379 436 36,000  Level Houston Center
03:58PM 30.3864 -98.6967 283° West 380 437 36,000  Level Houston Center
03:59PM 30.4086 -98.8175 282° West 380 437 36,000  Level Houston Center
04:00PM 30.4356 -98.9386 284° West 384 442 36,000  Level Houston Center
04:01PM 30.4625 -99.0583 285° West 381 438 36,000  Level Houston Center
04:02PM 30.4906 -99.1861 284° West 383 441 36,000  Level Houston Center
04:04PM 30.5186 -99.3064 285° West 386 444 36,000  Level Houston Center
04:05PM 30.5442 -99.4261 284° West 385 443 36,000  Level Houston Center
04:06PM 30.5678 -99.5461 283° West 383 441 36,000  Level Houston Center
04:07PM 30.5997 -99.6894 285° West 385 443 36,000  Level Houston Center
04:08PM 30.6239 -99.8089 283° West 384 442 36,000  Level Houston Center
04:09PM 30.6500 -99.9283 284° West 384 442 36,000  Level Houston Center
04:10PM 30.6753 -100.0467 284° West 382 440 36,000  Level Houston Center
04:11PM 30.6994 -100.1658 283° West 381 438 36,000  Level Houston Center
04:12PM 30.7281 -100.3056 283° West 376 433 36,000  Level Houston Center
04:13PM 30.7539 -100.4272 284° West 393 452 36,000  Level Houston Center
04:14PM 30.7769 -100.5428 283° West 376 433 36,000  Level Houston Center
04:15PM 30.8014 -100.6647 283° West 388 447 36,000  Level Houston Center
04:16PM 30.8261 -100.7828 284° West 384 442 36,000  Level Houston Center
04:17PM 30.8547 -100.9250 283° West 382 440 36,000  Level Houston Center
04:18PM 30.8789 -101.0436 283° West 382 440 36,000  Level Houston Center
04:19PM 30.9025 -101.1614 283° West 377 434 36,000  Level Houston Center
04:20PM 30.9269 -101.2794 284° West 376 433 36,000  Level Houston Center
04:21PM 30.9522 -101.4044 283° West 378 435 36,000  Level Houston Center
04:22PM 30.9606 -101.4511 282° West 378 435 36,000  Level Albuquerque Center
04:23PM 30.9836 -101.5706 283° West 379 436 36,000  Level Albuquerque Center
04:24PM 31.0069 -101.6900 283° West 378 435 36,000  Level Albuquerque Center
04:25PM 31.0344 -101.8328 283° West 377 434 36,000  Level Albuquerque Center
04:26PM 31.0531 -101.9375 282° West 387 445 36,000  Level Albuquerque Center
04:27PM 31.0814 -102.0803 283° West 385 443 36,000  Level Albuquerque Center
04:28PM 31.1039 -102.1994 282° West 379 436 36,000  Level Albuquerque Center
04:29PM 31.1269 -102.3192 283° West 378 435 36,000  Level Albuquerque Center
04:30PM 31.1494 -102.4381 282° West 376 433 36,000  Level Albuquerque Center
04:31PM 31.1722 -102.5594 282° West 379 436 36,000  Level Albuquerque Center
04:32PM 31.1942 -102.6778 282° West 376 433 36,000  Level Albuquerque Center
04:33PM 31.2214 -102.8219 282° West 377 434 36,000  Level Albuquerque Center
04:34PM 31.2442 -102.9422 283° West 378 435 36,000  Level Albuquerque Center
04:35PM 31.2661 -103.0622 282° West 378 435 36,000  Level Albuquerque Center
04:36PM 31.2875 -103.1833 282° West 380 437 36,000  Level Albuquerque Center
04:37PM 31.3097 -103.3044 282° West 381 438 36,000  Level Albuquerque Center
04:38PM 31.3314 -103.4256 282° West 381 438 36,000  Level Albuquerque Center
04:39PM 31.3575 -103.5714 282° West 382 440 36,000  Level Albuquerque Center
04:40PM 31.3797 -103.6939 282° West 385 443 36,000  Level Albuquerque Center
04:41PM 31.4011 -103.8089 282° West 384 442 36,000  Level Albuquerque Center
04:42PM 31.4208 -103.9292 281° West 380 437 36,000  Level Albuquerque Center
04:43PM 31.4431 -104.0486 282° West 379 436 36,000  Level Albuquerque Center
04:44PM 31.4686 -104.1950 282° West 383 441 36,000  Level Albuquerque Center
04:45PM 31.4906 -104.3144 282° West 379 436 36,000  Level Albuquerque Center
04:46PM 31.5106 -104.4336 281° West 377 434 36,000  Level Albuquerque Center
04:47PM 31.5311 -104.5533 281° West 377 434 36,000  Level Albuquerque Center
04:48PM 31.5528 -104.6719 282° West 376 433 36,000  Level Albuquerque Center
04:49PM 31.5764 -104.8158 281° West 377 434 36,000  Level Albuquerque Center
04:50PM 31.5967 -104.9350 281° West 377 434 36,000  Level Albuquerque Center
04:52PM 31.6164 -105.0542 281° West 376 433 36,000  Level Albuquerque Center
04:53PM 31.6364 -105.1722 281° West 373 429 36,000  Level Albuquerque Center
04:54PM 31.6564 -105.2906 281° West 372 428 36,000  Level Albuquerque Center
04:55PM 31.6792 -105.4347 281° West 374 430 36,000  Level Albuquerque Center
04:56PM 31.6978 -105.5514 281° West 368 423 36,000  Level Albuquerque Center
04:57PM 31.7175 -105.6689 281° West 368 423 36,000  Level Albuquerque Center
04:58PM 31.7367 -105.7861 281° West 367 422 36,000  Level Albuquerque Center
04:59PM 31.7558 -105.9042 281° West 369 425 36,000  Level Albuquerque Center
05:01PM 31.7858 -106.1157 280° West  Level FlightAware Approximate
05:01PM 31.7975 -106.1647 280° West 370 426 36,000  Level Albuquerque Center
05:02PM 31.8172 -106.2833 281° West 372 428 36,000  Level Albuquerque Center
05:03PM 31.8269 -106.4022 276° West 367 422 36,000  Level Albuquerque Center
05:04PM 31.8433 -106.5203 279° West 368 423 36,000  Level Albuquerque Center
05:05PM 31.8625 -106.6367 281° West 369 425 36,000  Level Albuquerque Center
05:06PM 31.8867 -106.7764 282° West 364 419 36,000  Level Albuquerque Center
05:07PM 31.9067 -106.8950 281° West 368 423 36,000  Level Albuquerque Center
05:08PM 31.9261 -107.0153 281° West 371 427 36,000  Level Albuquerque Center
05:09PM 31.9453 -107.1361 281° West 372 428 36,000  Level Albuquerque Center
05:11PM 31.9844 -107.3789 281° West 375 432 36,000  Level Albuquerque Center
05:12PM 32.0022 -107.5006 280° West 375 432 36,000  Level Albuquerque Center
05:13PM 32.0247 -107.6397 281° West 363 418 36,000  Level Albuquerque Center
05:14PM 32.0428 -107.7544 281° West 358 412 36,000  Level Albuquerque Center
05:15PM 32.0606 -107.8692 280° West 356 410 36,000  Level Albuquerque Center
05:16PM 32.0781 -107.9858 280° West 360 414 36,000  Level Albuquerque Center
05:17PM 32.0969 -108.1044 281° West 365 420 36,000  Level Albuquerque Center
05:18PM 32.1175 -108.2378 280° West 368 423 36,000  Level Albuquerque Center
05:19PM 32.1378 -108.3567 281° West 371 427 36,000  Level Albuquerque Center
05:20PM 32.1758 -108.4725 291° West 379 436 36,000  Level Albuquerque Center
05:22PM 32.2114 -108.5878 290° West 378 435 36,000  Level Albuquerque Center
05:23PM 32.2553 -108.7292 290° West 382 440 36,000  Level Albuquerque Center
05:24PM 32.2928 -108.8467 291° West 383 441 36,000  Level Albuquerque Center
05:25PM 32.3289 -108.9642 290° West 384 442 36,000  Level Albuquerque Center
05:26PM 32.3661 -109.0822 290° West 384 442 36,000  Level Albuquerque Center
05:27PM 32.4022 -109.2011 290° West 384 442 36,000  Level Albuquerque Center
05:28PM 32.4386 -109.3192 290° West 384 442 36,000  Level Albuquerque Center
05:29PM 32.4806 -109.4594 290° West 379 436 36,000  Level Albuquerque Center
05:30PM 32.5161 -109.5781 290° West 382 440 36,000  Level Albuquerque Center
05:31PM 32.5528 -109.6964 290° West 384 442 36,000  Level Albuquerque Center
05:32PM 32.5914 -109.8178 291° West 392 451 36,000  Level Albuquerque Center
05:33PM 32.6258 -109.9325 290° West 378 435 36,000  Level Albuquerque Center
05:34PM 32.6672 -110.0697 290° West 371 427 36,000  Level Albuquerque Center
05:35PM 32.7019 -110.1856 290° West 374 430 36,000  Level Albuquerque Center
05:36PM 32.7369 -110.3028 290° West 378 435 36,000  Level Albuquerque Center
05:37PM 32.7728 -110.4214 290° West 383 441 36,000  Level Albuquerque Center
05:38PM 32.8069 -110.5386 289° West 380 437 36,000  Level Albuquerque Center
05:39PM 32.8489 -110.6753 290° West 375 432 36,000  Level Albuquerque Center
05:40PM 32.8883 -110.7886 293° West 373 429 36,000  Level Albuquerque Center
05:41PM 32.9275 -110.9044 292° West 374 430 36,000  Level Albuquerque Center
05:42PM 32.9656 -111.0219 291° West 378 435 36,000  Level Albuquerque Center
05:43PM 33.0053 -111.1394 292° West 382 440 36,000  Level Albuquerque Center
05:44PM 33.0433 -111.2581 291° West 385 443 36,000  Level Albuquerque Center
05:45PM 33.0911 -111.4036 291° West 392 451 36,000  Level Albuquerque Center
05:46PM 33.1292 -111.5244 291° West 390 449 36,000  Level Albuquerque Center
05:47PM 33.1678 -111.6450 291° West 388 447 36,000  Level Albuquerque Center
05:48PM 33.2067 -111.7653 291° West 389 448 36,000  Level Albuquerque Center
05:49PM 33.2458 -111.8867 291° West 390 449 36,000  Level Albuquerque Center
05:50PM 33.2844 -112.0089 291° West 391 450 36,000  Level Albuquerque Center
05:51PM 33.3236 -112.1308 291° West 392 451 36,000  Level Albuquerque Center
05:53PM 33.3694 -112.2767 291° West 390 449 36,000  Level Albuquerque Center
05:54PM 33.4083 -112.3978 291° West 390 449 36,000  Level Albuquerque Center
05:55PM 33.4458 -112.5194 290° West 389 448 36,000  Level Albuquerque Center
05:56PM 33.4811 -112.6297 291° West 387 445 36,000  Level Albuquerque Center
05:57PM 33.5256 -112.7742 290° West 387 445 36,000  Level Albuquerque Center
05:58PM 33.5633 -112.8958 290° West 390 449 36,000  Level Albuquerque Center
05:59PM 33.6000 -113.0142 290° West 384 442 36,000  Level Albuquerque Center
06:00PM 33.6417 -113.1489 290° West 389 448 36,000  Level Albuquerque Center
06:01PM 33.6786 -113.2689 290° West 386 444 36,000  Level Albuquerque Center
06:02PM 33.7161 -113.3906 290° West 387 445 36,000  Level Albuquerque Center
06:03PM 33.7525 -113.5103 290° West 384 442 36,000  Level Albuquerque Center
06:04PM 33.7892 -113.6311 290° West 385 443 36,000  Level Albuquerque Center
06:05PM 33.8258 -113.7525 290° West 385 443 36,000  Level Albuquerque Center
06:06PM 33.8706 -113.8997 290° West 389 448 36,000  Level Albuquerque Center
06:07PM 33.9022 -114.0250 287° West 391 450 36,000  Level Albuquerque Center
06:08PM 33.9144 -114.1539 277° West 388 447 36,000  Level Albuquerque Center
06:09PM 33.9325 -114.2914 279° West 390 449 36,000  Level Albuquerque Center
06:10PM 33.9489 -114.4203 279° West 391 450 36,000  Level Albuquerque Center
06:11PM 33.9572 -114.4769 280° West 392 451 36,000  Level Los Angeles Center
06:12PM 33.9736 -114.6058 279° West 392 451 36,000  Level Los Angeles Center
06:13PM 33.9889 -114.7333 278° West 387 445 36,000  Level Los Angeles Center
06:14PM 34.0078 -114.8864 279° West 386 444 36,000  Level Los Angeles Center
06:15PM 34.0233 -115.0144 278° West 387 445 36,000  Level Los Angeles Center
06:16PM 34.0394 -115.1425 279° West 387 445 36,000  Level Los Angeles Center
06:17PM 34.0556 -115.2722 279° West 392 451 36,000  Level Los Angeles Center
06:18PM 34.0694 -115.3994 278° West 387 445 36,000  Level Los Angeles Center
06:19PM 34.0875 -115.5558 278° West 393 452 36,000  Level Los Angeles Center
06:20PM 34.1022 -115.6822 278° West 386 444 36,000  Level Los Angeles Center
06:21PM 34.1064 -115.8117 272° West 389 448 36,000  Level Los Angeles Center
06:22PM 34.0867 -115.9358 259° West 381 438 36,000  Level Los Angeles Center
06:23PM 34.0692 -116.0617 261° West 383 441 36,000 -1,020 Level Los Angeles Center
06:24PM 34.0506 -116.1878 260° West 383 441 33,900 -2,640 Descending Los Angeles Center
06:25PM 34.0272 -116.3372 259° West 381 438 30,600 -2,640 Descending Los Angeles Center
06:26PM 34.0100 -116.4592 260° West 374 430 28,400 -2,040 Descending Los Angeles Center
06:27PM 33.9983 -116.5747 263° West 355 409 26,400 -2,040 Descending Los Angeles Center
06:28PM 33.9875 -116.7167 265° West 357 411 23,900 -2,040 Descending Los Angeles Center
06:29PM 33.9781 -116.8342 264° West 355 409 21,800 -2,160 Descending Los Angeles Center
06:30PM 33.9658 -116.9722 264° West 348 400 19,400 -2,220 Descending Los Angeles Center
06:31PM 33.9667 -117.0667 271° West 352 405 17,900 -1,440 Descending Southern California TRACON
06:32PM 33.9500 -117.1833 260° West 341 392 17,000 -1,080 Descending Southern California TRACON
06:33PM 33.9333 -117.2833 259° West 336 387 15,800 -1,620 Descending Southern California TRACON
06:34PM 33.9333 -117.4000 270° West 324 373 13,800 -1,980 Descending Southern California TRACON
06:35PM 33.9667 -117.5000 292° West 319 367 11,900 -1,680 Descending Southern California TRACON
06:36PM 34.0167 -117.6000 301° West 329 379 10,500 -1,020 Descending Southern California TRACON
06:37PM 34.0000 -117.6833 256° West 284 327 9,900 -900 Descending Southern California TRACON
06:38PM 34.0000 -117.7833 270° West 278 320 8,700 -1,260 Descending Southern California TRACON
06:39PM 34.0167 -117.8667 284° West 278 320 7,500 -900 Descending Southern California TRACON
06:40PM 34.0000 -117.9667 259° West 249 287 6,900 -960 Descending Southern California TRACON
06:41PM 33.9833 -118.0333 253° West 237 273 5,600 -1,320 Descending Southern California TRACON
06:42PM 33.9833 -118.1167 270° West 235 270 4,300 -1,080 Descending Southern California TRACON
06:43PM 33.9761 -118.1672 260° West 231 266 3,800 -900 Descending Los Angeles Center
06:44PM 33.9692 -118.2339 263° West 212 244 2,800 -960 Descending Los Angeles Center
06:45PM 33.9642 -118.2950 264° West 197 227 1,800 -840 Descending Los Angeles Center
06:46PM 33.9583 -118.3428 262° West 164 189 1,100 -720 Descending Los Angeles Center
06:47PM 33.9547 -118.3836 264° West 137 158 400 -720 Descending Los Angeles Center
06:49PM 33.9333 -118.4000 270° West  Level FlightAware Approximate
06:56PM 33.9425 -118.4081 270° West  Level Estimated